sensor_id;sensor_type;location;lat;lon;timestamp;pressure;altitude;pressure_sealevel;temperature;humidity
53041;BME280;39326;42.650;23.248;2023-03-01T00:01:03;92969.91;;;4.44;91.12
53041;BME280;39326;42.650;23.248;2023-03-01T00:03:31;92963.94;;;4.47;90.65
53041;BME280;39326;42.650;23.248;2023-03-01T00:05:57;92966.50;;;4.43;90.67
53041;BME280;39326;42.650;23.248;2023-03-01T00:08:24;92958.47;;;4.39;90.45
53041;BME280;39326;42.650;23.248;2023-03-01T00:13:38;92951.44;;;4.31;91.43
53041;BME280;39326;42.650;23.248;2023-03-01T00:16:12;92945.81;;;4.33;90.77
53041;BME280;39326;42.650;23.248;2023-03-01T00:18:39;92940.69;;;4.24;91.44
53041;BME280;39326;42.650;23.248;2023-03-01T00:21:05;92944.72;;;4.34;90.70
53041;BME280;39326;42.650;23.248;2023-03-01T00:23:34;92937.81;;;4.17;91.81
53041;BME280;39326;42.650;23.248;2023-03-01T00:26:00;92932.44;;;4.26;91.16
53041;BME280;39326;42.650;23.248;2023-03-01T00:28:26;92915.69;;;4.22;91.32
53041;BME280;39326;42.650;23.248;2023-03-01T00:30:53;92918.13;;;4.02;91.54
53041;BME280;39326;42.650;23.248;2023-03-01T00:33:20;92915.91;;;4.04;91.70
53041;BME280;39326;42.650;23.248;2023-03-01T00:35:46;92916.03;;;3.96;92.06
53041;BME280;39326;42.650;23.248;2023-03-01T00:38:12;92909.31;;;3.98;91.85
53041;BME280;39326;42.650;23.248;2023-03-01T00:40:39;92912.09;;;3.89;92.08
53041;BME280;39326;42.650;23.248;2023-03-01T00:43:05;92914.72;;;4.02;92.10
53041;BME280;39326;42.650;23.248;2023-03-01T00:45:32;92914.38;;;4.03;91.49
53041;BME280;39326;42.650;23.248;2023-03-01T00:47:58;92902.50;;;3.97;92.00
53041;BME280;39326;42.650;23.248;2023-03-01T00:50:25;92904.03;;;4.10;91.03
53041;BME280;39326;42.650;23.248;2023-03-01T00:52:53;92906.16;;;3.93;91.75
53041;BME280;39326;42.650;23.248;2023-03-01T00:55:19;92908.69;;;3.77;92.35
53041;BME280;39326;42.650;23.248;2023-03-01T00:57:45;92905.41;;;3.68;93.24
53041;BME280;39326;42.650;23.248;2023-03-01T01:00:12;92913.09;;;3.48;94.05
53041;BME280;39326;42.650;23.248;2023-03-01T01:02:39;92916.16;;;3.50;94.07
53041;BME280;39326;42.650;23.248;2023-03-01T01:05:06;92921.31;;;3.47;93.82
53041;BME280;39326;42.650;23.248;2023-03-01T01:07:33;92924.94;;;3.67;93.17
53041;BME280;39326;42.650;23.248;2023-03-01T01:09:59;92930.56;;;3.65;93.27
53041;BME280;39326;42.650;23.248;2023-03-01T01:12:26;92912.53;;;3.79;93.32
53041;BME280;39326;42.650;23.248;2023-03-01T01:14:52;92903.63;;;3.84;92.36
53041;BME280;39326;42.650;23.248;2023-03-01T01:17:18;92911.88;;;3.82;92.53
53041;BME280;39326;42.650;23.248;2023-03-01T01:19:44;92914.84;;;3.93;92.39
53041;BME280;39326;42.650;23.248;2023-03-01T01:22:10;92906.38;;;4.00;91.48
53041;BME280;39326;42.650;23.248;2023-03-01T01:24:36;92914.50;;;3.95;92.12
53041;BME280;39326;42.650;23.248;2023-03-01T01:27:03;92911.66;;;4.00;91.48
53041;BME280;39326;42.650;23.248;2023-03-01T01:29:30;92923.41;;;4.02;91.73
53041;BME280;39326;42.650;23.248;2023-03-01T01:31:57;92923.75;;;4.01;91.43
53041;BME280;39326;42.650;23.248;2023-03-01T01:34:23;92921.44;;;3.99;91.58
53041;BME280;39326;42.650;23.248;2023-03-01T01:36:53;92921.88;;;4.13;91.04
53041;BME280;39326;42.650;23.248;2023-03-01T01:39:20;92922.31;;;4.15;90.80
53041;BME280;39326;42.650;23.248;2023-03-01T01:41:47;92924.72;;;4.21;90.18
53041;BME280;39326;42.650;23.248;2023-03-01T01:44:22;92937.94;;;4.21;90.64
53041;BME280;39326;42.650;23.248;2023-03-01T01:47:06;92935.84;;;4.14;89.85
53041;BME280;39326;42.650;23.248;2023-03-01T01:49:43;92931.44;;;4.30;89.06
53041;BME280;39326;42.650;23.248;2023-03-01T01:52:16;92931.31;;;4.27;89.44
53041;BME280;39326;42.650;23.248;2023-03-01T01:57:31;92924.38;;;4.10;89.86
53041;BME280;39326;42.650;23.248;2023-03-01T02:00:06;92920.00;;;4.14;90.10
53041;BME280;39326;42.650;23.248;2023-03-01T02:02:34;92918.91;;;4.15;89.55
53041;BME280;39326;42.650;23.248;2023-03-01T02:05:14;92913.97;;;4.01;89.96
53041;BME280;39326;42.650;23.248;2023-03-01T02:07:43;92906.94;;;3.93;89.96
53041;BME280;39326;42.650;23.248;2023-03-01T02:10:10;92902.97;;;3.99;89.88
53041;BME280;39326;42.650;23.248;2023-03-01T02:12:38;92887.03;;;3.96;89.84
53041;BME280;39326;42.650;23.248;2023-03-01T02:15:06;92881.69;;;3.80;90.05
53041;BME280;39326;42.650;23.248;2023-03-01T02:17:32;92875.38;;;3.84;89.92
53041;BME280;39326;42.650;23.248;2023-03-01T02:22:45;92885.09;;;3.68;90.65
53041;BME280;39326;42.650;23.248;2023-03-01T02:30:45;92896.28;;;3.65;90.21
53041;BME280;39326;42.650;23.248;2023-03-01T02:33:31;92904.19;;;3.77;90.08
53041;BME280;39326;42.650;23.248;2023-03-01T02:36:00;92904.09;;;3.61;90.00
53041;BME280;39326;42.650;23.248;2023-03-01T02:38:28;92905.63;;;3.75;88.98
53041;BME280;39326;42.650;23.248;2023-03-01T02:40:54;92902.66;;;3.64;90.00
53041;BME280;39326;42.650;23.248;2023-03-01T02:43:25;92904.88;;;3.62;90.40
53041;BME280;39326;42.650;23.248;2023-03-01T02:45:57;92901.88;;;3.51;90.85
53041;BME280;39326;42.650;23.248;2023-03-01T02:48:24;92902.44;;;3.57;90.10
53041;BME280;39326;42.650;23.248;2023-03-01T02:53:39;92884.38;;;3.22;91.61
53041;BME280;39326;42.650;23.248;2023-03-01T02:56:10;92888.47;;;3.20;92.08
53041;BME280;39326;42.650;23.248;2023-03-01T02:58:40;92884.63;;;3.17;92.44
53041;BME280;39326;42.650;23.248;2023-03-01T03:01:14;92890.47;;;3.23;92.66
53041;BME280;39326;42.650;23.248;2023-03-01T03:03:42;92886.25;;;3.22;91.47
53041;BME280;39326;42.650;23.248;2023-03-01T03:06:08;92887.16;;;3.26;92.10
53041;BME280;39326;42.650;23.248;2023-03-01T03:08:35;92889.56;;;3.19;92.58
53041;BME280;39326;42.650;23.248;2023-03-01T03:11:01;92887.81;;;3.23;92.79
53041;BME280;39326;42.650;23.248;2023-03-01T03:13:28;92886.72;;;3.24;92.63
53041;BME280;39326;42.650;23.248;2023-03-01T03:15:55;92887.13;;;3.14;92.81
53041;BME280;39326;42.650;23.248;2023-03-01T03:18:22;92890.34;;;3.19;92.69
53041;BME280;39326;42.650;23.248;2023-03-01T03:20:52;92890.56;;;3.26;92.41
53041;BME280;39326;42.650;23.248;2023-03-01T03:23:20;92891.75;;;3.29;92.42
53041;BME280;39326;42.650;23.248;2023-03-01T03:25:49;92885.06;;;3.19;93.19
53041;BME280;39326;42.650;23.248;2023-03-01T03:28:16;92880.34;;;3.25;92.33
53041;BME280;39326;42.650;23.248;2023-03-01T03:30:42;92878.47;;;3.25;92.70
53041;BME280;39326;42.650;23.248;2023-03-01T03:33:09;92882.88;;;3.33;91.99
53041;BME280;39326;42.650;23.248;2023-03-01T03:35:44;92886.81;;;3.27;92.53
53041;BME280;39326;42.650;23.248;2023-03-01T03:38:12;92885.19;;;3.23;92.31
53041;BME280;39326;42.650;23.248;2023-03-01T03:40:46;92893.06;;;3.35;91.88
53041;BME280;39326;42.650;23.248;2023-03-01T03:43:16;92894.41;;;3.41;92.19
53041;BME280;39326;42.650;23.248;2023-03-01T03:45:44;92886.19;;;3.43;91.50
53041;BME280;39326;42.650;23.248;2023-03-01T03:48:29;92879.38;;;3.42;91.20
53041;BME280;39326;42.650;23.248;2023-03-01T03:50:56;92869.34;;;3.35;91.60
53041;BME280;39326;42.650;23.248;2023-03-01T03:53:25;92888.59;;;3.48;91.00
53041;BME280;39326;42.650;23.248;2023-03-01T03:56:10;92878.38;;;3.46;92.07
53041;BME280;39326;42.650;23.248;2023-03-01T03:58:36;92892.88;;;3.40;91.78
53041;BME280;39326;42.650;23.248;2023-03-01T04:01:02;92888.28;;;3.37;92.35
53041;BME280;39326;42.650;23.248;2023-03-01T04:03:31;92883.63;;;3.34;91.92
53041;BME280;39326;42.650;23.248;2023-03-01T04:06:00;92888.28;;;3.37;92.24
53041;BME280;39326;42.650;23.248;2023-03-01T04:08:27;92891.88;;;3.32;91.91
53041;BME280;39326;42.650;23.248;2023-03-01T04:11:00;92891.88;;;3.32;92.13
53041;BME280;39326;42.650;23.248;2023-03-01T04:13:47;92890.00;;;3.33;92.09
53041;BME280;39326;42.650;23.248;2023-03-01T04:16:13;92896.94;;;3.38;92.56
53041;BME280;39326;42.650;23.248;2023-03-01T04:18:40;92897.84;;;3.42;91.51
53041;BME280;39326;42.650;23.248;2023-03-01T04:21:06;92901.34;;;3.46;91.69
53041;BME280;39326;42.650;23.248;2023-03-01T04:23:33;92892.31;;;3.47;91.18
53041;BME280;39326;42.650;23.248;2023-03-01T04:25:59;92887.38;;;3.45;91.71
53041;BME280;39326;42.650;23.248;2023-03-01T04:28:28;92893.75;;;3.32;92.20
53041;BME280;39326;42.650;23.248;2023-03-01T04:30:57;92903.19;;;3.33;91.68
53041;BME280;39326;42.650;23.248;2023-03-01T04:33:23;92890.22;;;3.28;92.22
53041;BME280;39326;42.650;23.248;2023-03-01T04:35:50;92887.03;;;3.22;92.69
53041;BME280;39326;42.650;23.248;2023-03-01T04:38:16;92881.47;;;3.36;91.86
53041;BME280;39326;42.650;23.248;2023-03-01T04:40:43;92884.84;;;3.24;92.50
53041;BME280;39326;42.650;23.248;2023-03-01T04:43:10;92884.09;;;3.24;92.53
53041;BME280;39326;42.650;23.248;2023-03-01T04:45:37;92883.41;;;3.15;92.74
53041;BME280;39326;42.650;23.248;2023-03-01T04:48:04;92875.16;;;3.16;93.04
53041;BME280;39326;42.650;23.248;2023-03-01T04:50:31;92875.94;;;3.04;93.14
53041;BME280;39326;42.650;23.248;2023-03-01T04:52:56;92868.56;;;3.10;92.88
53041;BME280;39326;42.650;23.248;2023-03-01T04:55:25;92874.28;;;3.00;93.10
53041;BME280;39326;42.650;23.248;2023-03-01T04:57:52;92872.28;;;2.97;93.79
53041;BME280;39326;42.650;23.248;2023-03-01T05:00:19;92878.00;;;2.99;93.44
53041;BME280;39326;42.650;23.248;2023-03-01T05:05:38;92879.91;;;3.11;92.62
53041;BME280;39326;42.650;23.248;2023-03-01T05:08:07;92876.81;;;3.08;93.59
53041;BME280;39326;42.650;23.248;2023-03-01T05:10:35;92884.03;;;2.99;93.65
53041;BME280;39326;42.650;23.248;2023-03-01T05:13:03;92877.25;;;2.98;93.93
53041;BME280;39326;42.650;23.248;2023-03-01T05:15:30;92883.81;;;2.92;94.36
53041;BME280;39326;42.650;23.248;2023-03-01T05:17:58;92883.72;;;3.01;93.73
53041;BME280;39326;42.650;23.248;2023-03-01T05:20:25;92889.75;;;3.01;93.59
53041;BME280;39326;42.650;23.248;2023-03-01T05:22:54;92888.44;;;3.07;93.55
53041;BME280;39326;42.650;23.248;2023-03-01T05:25:21;92891.06;;;3.07;93.02
53041;BME280;39326;42.650;23.248;2023-03-01T05:27:48;92893.47;;;3.00;93.48
53041;BME280;39326;42.650;23.248;2023-03-01T05:30:16;92892.94;;;3.07;93.39
53041;BME280;39326;42.650;23.248;2023-03-01T05:32:44;92891.19;;;3.11;92.74
53041;BME280;39326;42.650;23.248;2023-03-01T05:35:12;92899.31;;;3.06;93.34
53041;BME280;39326;42.650;23.248;2023-03-01T05:37:46;92891.63;;;3.01;93.81
53041;BME280;39326;42.650;23.248;2023-03-01T05:40:16;92890.31;;;3.07;93.31
53041;BME280;39326;42.650;23.248;2023-03-01T05:42:46;92891.41;;;3.06;93.79
53041;BME280;39326;42.650;23.248;2023-03-01T05:45:12;92886.69;;;3.12;93.31
53041;BME280;39326;42.650;23.248;2023-03-01T05:47:40;92897.81;;;3.17;92.65
53041;BME280;39326;42.650;23.248;2023-03-01T05:50:22;92888.56;;;3.11;93.17
53041;BME280;39326;42.650;23.248;2023-03-01T05:52:50;92903.19;;;3.33;92.29
53041;BME280;39326;42.650;23.248;2023-03-01T05:55:21;92909.66;;;3.23;92.38
53041;BME280;39326;42.650;23.248;2023-03-01T05:57:47;92911.97;;;3.25;92.19
53041;BME280;39326;42.650;23.248;2023-03-01T06:00:14;92918.78;;;3.38;92.39
53041;BME280;39326;42.650;23.248;2023-03-01T06:02:40;92922.63;;;3.41;91.23
53041;BME280;39326;42.650;23.248;2023-03-01T06:05:08;92926.81;;;3.54;90.79
53041;BME280;39326;42.650;23.248;2023-03-01T06:07:35;92922.53;;;3.49;90.64
53041;BME280;39326;42.650;23.248;2023-03-01T06:10:02;92923.53;;;3.57;90.76
53041;BME280;39326;42.650;23.248;2023-03-01T06:12:32;92928.69;;;3.53;90.88
53041;BME280;39326;42.650;23.248;2023-03-01T06:14:59;92923.41;;;3.53;90.62
53041;BME280;39326;42.650;23.248;2023-03-01T06:17:25;92932.22;;;3.57;90.51
53041;BME280;39326;42.650;23.248;2023-03-01T06:19:51;92932.97;;;3.58;90.39
53041;BME280;39326;42.650;23.248;2023-03-01T06:22:17;92938.66;;;3.48;90.30
53041;BME280;39326;42.650;23.248;2023-03-01T06:24:44;92934.50;;;3.59;90.26
53041;BME280;39326;42.650;23.248;2023-03-01T06:27:09;92943.41;;;3.67;89.95
53041;BME280;39326;42.650;23.248;2023-03-01T06:29:35;92946.16;;;3.70;89.37
53041;BME280;39326;42.650;23.248;2023-03-01T06:32:02;92938.94;;;3.67;89.32
53041;BME280;39326;42.650;23.248;2023-03-01T06:34:28;92948.03;;;3.57;90.03
53041;BME280;39326;42.650;23.248;2023-03-01T06:36:53;92946.28;;;3.61;89.35
53041;BME280;39326;42.650;23.248;2023-03-01T06:39:19;92942.22;;;3.76;88.71
53041;BME280;39326;42.650;23.248;2023-03-01T06:41:45;92944.72;;;3.73;89.54
53041;BME280;39326;42.650;23.248;2023-03-01T06:44:11;92959.69;;;3.93;88.85
53041;BME280;39326;42.650;23.248;2023-03-01T06:46:38;92951.78;;;3.93;88.39
53041;BME280;39326;42.650;23.248;2023-03-01T06:49:04;92957.38;;;3.92;88.87
53041;BME280;39326;42.650;23.248;2023-03-01T06:51:35;92950.69;;;3.94;88.54
53041;BME280;39326;42.650;23.248;2023-03-01T06:54:03;92955.50;;;4.04;88.03
53041;BME280;39326;42.650;23.248;2023-03-01T06:56:29;92948.03;;;4.06;87.67
53041;BME280;39326;42.650;23.248;2023-03-01T06:58:55;92950.69;;;4.06;87.65
53041;BME280;39326;42.650;23.248;2023-03-01T07:01:21;92952.44;;;4.02;87.94
53041;BME280;39326;42.650;23.248;2023-03-01T07:03:48;92952.97;;;4.08;86.90
53041;BME280;39326;42.650;23.248;2023-03-01T07:06:14;92954.97;;;3.99;86.65
53041;BME280;39326;42.650;23.248;2023-03-01T07:08:41;92957.91;;;4.09;87.10
53041;BME280;39326;42.650;23.248;2023-03-01T07:11:07;92949.94;;;4.18;86.56
53041;BME280;39326;42.650;23.248;2023-03-01T07:13:34;92956.50;;;4.36;86.24
53041;BME280;39326;42.650;23.248;2023-03-01T07:16:00;92957.69;;;4.39;86.31
53041;BME280;39326;42.650;23.248;2023-03-01T07:18:26;92951.66;;;4.38;86.90
53041;BME280;39326;42.650;23.248;2023-03-01T07:20:53;92952.28;;;4.48;86.12
53041;BME280;39326;42.650;23.248;2023-03-01T07:23:19;92944.31;;;4.60;85.44
53041;BME280;39326;42.650;23.248;2023-03-01T07:25:51;92937.75;;;4.54;85.75
53041;BME280;39326;42.650;23.248;2023-03-01T07:28:17;92935.81;;;4.66;85.67
53041;BME280;39326;42.650;23.248;2023-03-01T07:30:44;92919.66;;;4.68;85.47
53041;BME280;39326;42.650;23.248;2023-03-01T07:33:10;92937.38;;;4.67;85.64
53041;BME280;39326;42.650;23.248;2023-03-01T07:35:38;92924.22;;;4.55;86.06
53041;BME280;39326;42.650;23.248;2023-03-01T07:38:04;92939.03;;;4.60;86.44
53041;BME280;39326;42.650;23.248;2023-03-01T07:40:30;92935.28;;;4.61;85.89
53041;BME280;39326;42.650;23.248;2023-03-01T07:42:57;92930.31;;;4.72;85.61
53041;BME280;39326;42.650;23.248;2023-03-01T07:45:24;92937.31;;;4.80;85.35
53041;BME280;39326;42.650;23.248;2023-03-01T07:47:55;92932.22;;;4.59;84.62
53041;BME280;39326;42.650;23.248;2023-03-01T07:50:22;92926.38;;;4.65;84.10
53041;BME280;39326;42.650;23.248;2023-03-01T07:52:49;92933.53;;;4.65;84.54
53041;BME280;39326;42.650;23.248;2023-03-01T07:55:16;92931.41;;;4.71;84.51
53041;BME280;39326;42.650;23.248;2023-03-01T07:57:42;92919.91;;;4.63;84.74
53041;BME280;39326;42.650;23.248;2023-03-01T08:00:10;92931.31;;;4.67;84.25
53041;BME280;39326;42.650;23.248;2023-03-01T08:02:38;92932.09;;;4.67;84.37
53041;BME280;39326;42.650;23.248;2023-03-01T08:05:06;92920.38;;;4.81;84.01
53041;BME280;39326;42.650;23.248;2023-03-01T08:07:33;92920.22;;;4.89;83.82
53041;BME280;39326;42.650;23.248;2023-03-01T08:09:59;92917.41;;;4.98;82.79
53041;BME280;39326;42.650;23.248;2023-03-01T08:12:25;92920.47;;;4.84;82.83
53041;BME280;39326;42.650;23.248;2023-03-01T08:14:54;92916.56;;;4.94;82.24
53041;BME280;39326;42.650;23.248;2023-03-01T08:17:20;92920.84;;;4.99;82.08
53041;BME280;39326;42.650;23.248;2023-03-01T08:19:46;92924.16;;;4.95;81.77
53041;BME280;39326;42.650;23.248;2023-03-01T08:22:13;92918.13;;;4.95;81.77
53041;BME280;39326;42.650;23.248;2023-03-01T08:24:39;92929.25;;;4.88;81.99
53041;BME280;39326;42.650;23.248;2023-03-01T08:27:05;92928.38;;;4.84;81.58
53041;BME280;39326;42.650;23.248;2023-03-01T08:29:31;92924.91;;;4.80;81.65
53041;BME280;39326;42.650;23.248;2023-03-01T08:31:58;92922.91;;;4.77;81.89
53041;BME280;39326;42.650;23.248;2023-03-01T08:34:25;92923.84;;;4.69;81.55
53041;BME280;39326;42.650;23.248;2023-03-01T08:36:52;92923.34;;;4.79;81.25
53041;BME280;39326;42.650;23.248;2023-03-01T08:39:19;92924.31;;;4.87;80.94
53041;BME280;39326;42.650;23.248;2023-03-01T08:41:46;92928.38;;;4.84;81.14
53041;BME280;39326;42.650;23.248;2023-03-01T08:44:13;92929.31;;;4.76;80.75
53041;BME280;39326;42.650;23.248;2023-03-01T08:46:42;92930.19;;;4.80;82.06
53041;BME280;39326;42.650;23.248;2023-03-01T08:49:12;92928.44;;;5.00;80.69
53041;BME280;39326;42.650;23.248;2023-03-01T08:51:39;92931.13;;;4.88;80.44
53041;BME280;39326;42.650;23.248;2023-03-01T08:54:07;92924.28;;;4.99;80.59
53041;BME280;39326;42.650;23.248;2023-03-01T08:56:33;92936.78;;;5.02;80.51
53041;BME280;39326;42.650;23.248;2023-03-01T08:59:00;92930.09;;;5.20;80.02
53041;BME280;39326;42.650;23.248;2023-03-01T09:01:27;92932.22;;;5.15;80.66
53041;BME280;39326;42.650;23.248;2023-03-01T09:03:54;92930.56;;;5.10;80.03
53041;BME280;39326;42.650;23.248;2023-03-01T09:06:20;92927.34;;;5.17;79.89
53041;BME280;39326;42.650;23.248;2023-03-01T09:08:48;92928.47;;;5.16;79.57
53041;BME280;39326;42.650;23.248;2023-03-01T09:11:20;92922.75;;;5.30;79.55
53041;BME280;39326;42.650;23.248;2023-03-01T09:13:47;92926.09;;;5.42;78.51
53041;BME280;39326;42.650;23.248;2023-03-01T09:16:17;92926.16;;;5.30;78.86
53041;BME280;39326;42.650;23.248;2023-03-01T09:18:43;92924.63;;;5.29;79.05
53041;BME280;39326;42.650;23.248;2023-03-01T09:21:15;92923.56;;;5.46;78.36
53041;BME280;39326;42.650;23.248;2023-03-01T09:23:46;92920.72;;;5.55;77.93
53041;BME280;39326;42.650;23.248;2023-03-01T09:26:14;92917.16;;;5.63;78.06
53041;BME280;39326;42.650;23.248;2023-03-01T09:28:42;92918.88;;;5.71;77.93
53041;BME280;39326;42.650;23.248;2023-03-01T09:31:10;92922.47;;;5.63;77.74
53041;BME280;39326;42.650;23.248;2023-03-01T09:33:39;92923.81;;;5.57;78.47
53041;BME280;39326;42.650;23.248;2023-03-01T09:36:11;92918.34;;;5.65;77.92
53041;BME280;39326;42.650;23.248;2023-03-01T09:38:37;92904.72;;;5.63;78.69
53041;BME280;39326;42.650;23.248;2023-03-01T09:46:40;92901.44;;;5.86;77.49
53041;BME280;39326;42.650;23.248;2023-03-01T09:49:14;92904.94;;;5.74;77.28
53041;BME280;39326;42.650;23.248;2023-03-01T09:51:43;92901.09;;;5.71;77.45
53041;BME280;39326;42.650;23.248;2023-03-01T09:54:14;92889.00;;;5.70;77.44
53041;BME280;39326;42.650;23.248;2023-03-01T09:56:46;92898.38;;;5.84;77.33
53041;BME280;39326;42.650;23.248;2023-03-01T10:02:30;92885.38;;;5.78;77.29
53041;BME280;39326;42.650;23.248;2023-03-01T10:07:52;92884.88;;;5.73;77.11
53041;BME280;39326;42.650;23.248;2023-03-01T10:10:33;92876.94;;;5.73;77.81
53041;BME280;39326;42.650;23.248;2023-03-01T10:13:07;92880.53;;;5.81;77.71
53041;BME280;39326;42.650;23.248;2023-03-01T10:15:44;92880.41;;;5.93;77.17
53041;BME280;39326;42.650;23.248;2023-03-01T10:18:16;92882.91;;;5.86;76.52
53041;BME280;39326;42.650;23.248;2023-03-01T10:20:57;92887.88;;;5.87;76.71
53041;BME280;39326;42.650;23.248;2023-03-01T10:23:25;92877.53;;;5.82;76.98
53041;BME280;39326;42.650;23.248;2023-03-01T10:26:00;92873.66;;;5.95;76.29
53041;BME280;39326;42.650;23.248;2023-03-01T10:31:27;92886.16;;;5.79;76.67
53041;BME280;39326;42.650;23.248;2023-03-01T10:34:08;92865.59;;;5.72;77.83
53041;BME280;39326;42.650;23.248;2023-03-01T10:36:35;92870.22;;;5.60;78.30
53041;BME280;39326;42.650;23.248;2023-03-01T10:39:15;92868.06;;;5.81;77.62
53041;BME280;39326;42.650;23.248;2023-03-01T10:41:55;92867.16;;;5.93;76.92
53041;BME280;39326;42.650;23.248;2023-03-01T10:44:44;92860.91;;;5.82;76.48
53041;BME280;39326;42.650;23.248;2023-03-01T10:47:19;92868.56;;;5.87;77.18
53041;BME280;39326;42.650;23.248;2023-03-01T10:50:08;92866.75;;;5.91;76.71
53041;BME280;39326;42.650;23.248;2023-03-01T10:52:57;92867.72;;;5.83;77.58
53041;BME280;39326;42.650;23.248;2023-03-01T10:58:18;92869.59;;;5.82;77.18
53041;BME280;39326;42.650;23.248;2023-03-01T11:00:52;92872.50;;;5.77;77.86
53041;BME280;39326;42.650;23.248;2023-03-01T11:03:38;92876.94;;;5.73;78.09
53041;BME280;39326;42.650;23.248;2023-03-01T11:08:43;92876.38;;;5.99;77.23
53041;BME280;39326;42.650;23.248;2023-03-01T11:13:36;92876.06;;;6.00;77.30
53041;BME280;39326;42.650;23.248;2023-03-01T11:16:10;92864.88;;;5.91;77.25
53041;BME280;39326;42.650;23.248;2023-03-01T11:18:38;92866.75;;;5.91;77.40
53041;BME280;39326;42.650;23.248;2023-03-01T11:21:05;92869.50;;;5.94;77.51
53041;BME280;39326;42.650;23.248;2023-03-01T11:23:34;92869.50;;;5.94;77.15
53041;BME280;39326;42.650;23.248;2023-03-01T11:26:07;92858.47;;;5.92;77.28
53041;BME280;39326;42.650;23.248;2023-03-01T11:28:37;92861.88;;;5.93;77.20
53041;BME280;39326;42.650;23.248;2023-03-01T11:31:10;92862.38;;;5.98;76.63
53041;BME280;39326;42.650;23.248;2023-03-01T11:36:52;92855.19;;;5.99;76.65
53041;BME280;39326;42.650;23.248;2023-03-01T11:39:53;92847.19;;;5.95;76.19
53041;BME280;39326;42.650;23.248;2023-03-01T11:42:30;92845.16;;;5.89;76.74
53041;BME280;39326;42.650;23.248;2023-03-01T11:45:08;92839.69;;;5.97;76.75
53041;BME280;39326;42.650;23.248;2023-03-01T11:50:40;92828.53;;;5.88;77.25
53041;BME280;39326;42.650;23.248;2023-03-01T11:53:24;92835.72;;;5.72;76.96
53041;BME280;39326;42.650;23.248;2023-03-01T12:02:08;92816.19;;;5.76;77.82
53041;BME280;39326;42.650;23.248;2023-03-01T12:12:55;92808.47;;;5.87;78.05
53041;BME280;39326;42.650;23.248;2023-03-01T12:21:16;92803.88;;;6.03;76.98
53041;BME280;39326;42.650;23.248;2023-03-01T12:24:06;92803.25;;;5.91;77.54
53041;BME280;39326;42.650;23.248;2023-03-01T12:27:18;92805.41;;;6.04;75.94
53041;BME280;39326;42.650;23.248;2023-03-01T12:32:42;92802.22;;;6.34;76.33
53041;BME280;39326;42.650;23.248;2023-03-01T12:49:41;92791.47;;;7.34;72.60
53041;BME280;39326;42.650;23.248;2023-03-01T12:52:16;92794.91;;;7.61;72.24
53041;BME280;39326;42.650;23.248;2023-03-01T12:54:44;92798.69;;;7.87;71.52
53041;BME280;39326;42.650;23.248;2023-03-01T12:57:17;92790.47;;;7.96;71.13
53041;BME280;39326;42.650;23.248;2023-03-01T13:08:33;92791.03;;;7.82;69.83
53041;BME280;39326;42.650;23.248;2023-03-01T13:11:06;92799.34;;;7.80;
53041;BME280;39326;42.650;23.248;2023-03-01T13:13:38;92790.53;;;7.73;70.81
53041;BME280;39326;42.650;23.248;2023-03-01T13:16:40;92797.81;;;7.53;70.32
53041;BME280;39326;42.650;23.248;2023-03-01T13:19:16;92793.28;;;7.53;70.47
53041;BME280;39326;42.650;23.248;2023-03-01T13:21:46;92795.44;;;7.44;71.65
53041;BME280;39326;42.650;23.248;2023-03-01T13:24:35;92806.16;;;7.51;71.62
53041;BME280;39326;42.650;23.248;2023-03-01T13:29:52;92807.28;;;7.27;71.54
53041;BME280;39326;42.650;23.248;2023-03-01T13:32:28;92798.56;;;7.27;72.19
53041;BME280;39326;42.650;23.248;2023-03-01T13:34:55;92798.56;;;7.04;72.25
53041;BME280;39326;42.650;23.248;2023-03-01T13:37:27;92809.06;;;7.20;72.54
53041;BME280;39326;42.650;23.248;2023-03-01T13:39:56;92812.41;;;7.17;72.35
53041;BME280;39326;42.650;23.248;2023-03-01T13:42:43;92805.22;;;7.17;72.24
53041;BME280;39326;42.650;23.248;2023-03-01T13:45:35;92800.88;;;7.05;72.73
53041;BME280;39326;42.650;23.248;2023-03-01T13:48:08;92796.63;;;7.01;73.18
53041;BME280;39326;42.650;23.248;2023-03-01T13:50:50;92797.44;;;7.05;73.30
53041;BME280;39326;42.650;23.248;2023-03-01T13:53:22;92796.00;;;7.07;73.13
53041;BME280;39326;42.650;23.248;2023-03-01T13:55:51;92792.09;;;7.01;73.28
53041;BME280;39326;42.650;23.248;2023-03-01T13:58:25;92790.88;;;6.95;73.52
53041;BME280;39326;42.650;23.248;2023-03-01T14:01:06;92791.91;;;6.91;73.87
53041;BME280;39326;42.650;23.248;2023-03-01T14:03:40;92788.72;;;7.04;73.54
53041;BME280;39326;42.650;23.248;2023-03-01T14:06:15;92787.97;;;7.04;74.05
53041;BME280;39326;42.650;23.248;2023-03-01T14:08:44;92783.97;;;7.14;73.61
53041;BME280;39326;42.650;23.248;2023-03-01T14:15:00;92776.88;;;7.21;73.14
53041;BME280;39326;42.650;23.248;2023-03-01T14:19:59;92788.25;;;6.99;73.51
53041;BME280;39326;42.650;23.248;2023-03-01T14:22:32;92768.59;;;6.77;73.84
53041;BME280;39326;42.650;23.248;2023-03-01T14:25:04;92785.00;;;6.86;73.84
53041;BME280;39326;42.650;23.248;2023-03-01T14:27:39;92771.06;;;6.89;73.64
53041;BME280;39326;42.650;23.248;2023-03-01T14:30:11;92778.59;;;6.87;74.25
53041;BME280;39326;42.650;23.248;2023-03-01T14:32:39;92781.72;;;6.70;74.65
53041;BME280;39326;42.650;23.248;2023-03-01T14:35:25;92780.63;;;6.74;74.30
53041;BME280;39326;42.650;23.248;2023-03-01T14:37:51;92776.59;;;6.80;74.18
53041;BME280;39326;42.650;23.248;2023-03-01T14:42:56;92764.41;;;6.76;74.45
53041;BME280;39326;42.650;23.248;2023-03-01T14:45:25;92774.53;;;6.70;74.95
53041;BME280;39326;42.650;23.248;2023-03-01T14:47:52;92770.13;;;6.78;75.15
53041;BME280;39326;42.650;23.248;2023-03-01T14:50:26;92778.00;;;6.74;74.55
53041;BME280;39326;42.650;23.248;2023-03-01T14:52:59;92767.56;;;6.62;74.64
53041;BME280;39326;42.650;23.248;2023-03-01T14:55:31;92768.41;;;6.27;75.93
53041;BME280;39326;42.650;23.248;2023-03-01T14:57:59;92767.56;;;6.23;75.80
53041;BME280;39326;42.650;23.248;2023-03-01T15:00:27;92759.75;;;6.30;76.13